createdAt,value
2023-04-07T00:00:42.747Z,10.27
2023-04-07T00:01:44.296Z,12.53
2023-04-07T00:02:47.035Z,9.53
2023-04-07T00:03:48.528Z,10.27
2023-04-07T00:04:50.192Z,11.27
2023-04-07T00:05:51.808Z,9.67
2023-04-07T00:06:53.210Z,10.13
2023-04-07T00:07:56.757Z,10.93
2023-04-07T00:08:58.746Z,10.47
2023-04-07T00:10:00.201Z,9.17
2023-04-07T00:11:01.909Z,9.67
2023-04-07T00:12:03.441Z,9.23
2023-04-07T00:13:05.171Z,8.80
2023-04-07T00:14:06.530Z,9.67
2023-04-07T00:15:08.173Z,9.10
2023-04-07T00:16:09.534Z,9.83
2023-04-07T00:17:10.953Z,11.53
2023-04-07T00:18:12.279Z,9.13
2023-04-07T00:19:13.595Z,9.77
2023-04-07T00:20:15.004Z,10.40
2023-04-07T00:21:16.344Z,10.60
2023-04-07T00:22:18.088Z,9.77
2023-04-07T00:23:19.869Z,9.23
2023-04-07T00:24:31.526Z,10.73
2023-04-07T00:25:35.894Z,10.33
2023-04-07T00:26:37.290Z,9.73
2023-04-07T00:27:38.707Z,10.20
2023-04-07T00:28:40.620Z,8.80
2023-04-07T00:29:43.719Z,10.80
2023-04-07T00:30:45.247Z,10.57
2023-04-07T00:31:46.743Z,11.37
2023-04-07T00:32:48.207Z,9.43
2023-04-07T00:33:49.670Z,9.87
2023-04-07T00:34:50.974Z,9.17
2023-04-07T00:35:54.299Z,10.43
2023-04-07T00:36:56.146Z,10.13
2023-04-07T00:37:57.484Z,10.67
2023-04-07T00:38:59.008Z,11.40
2023-04-07T00:40:00.607Z,9.23
2023-04-07T00:41:02.121Z,10.30
2023-04-07T00:42:04.279Z,11.73
2023-04-07T00:43:05.583Z,10.50
2023-04-07T00:44:06.867Z,9.77
2023-04-07T00:45:08.705Z,9.40
2023-04-07T00:46:10.105Z,10.37
2023-04-07T00:47:11.734Z,10.37
2023-04-07T00:48:13.068Z,10.87
2023-04-07T00:49:15.274Z,11.53
2023-04-07T00:50:16.700Z,12.13
2023-04-07T00:51:19.960Z,10.77
2023-04-07T00:52:27.277Z,11.13
2023-04-07T00:53:28.949Z,10.33
2023-04-07T00:54:30.790Z,10.90
2023-04-07T00:55:32.130Z,10.40
2023-04-07T00:56:33.582Z,10.57
2023-04-07T00:57:35.194Z,10.63
2023-04-07T00:58:36.520Z,12.03
2023-04-07T00:59:38.695Z,10.87
2023-04-07T01:00:46.052Z,11.10
2023-04-07T01:01:51.296Z,10.50
2023-04-07T01:03:00.489Z,11.20
2023-04-07T01:04:05.141Z,11.47
2023-04-07T01:05:23.524Z,9.83
2023-04-07T01:06:29.674Z,10.97
2023-04-07T01:07:49.747Z,10.50
2023-04-07T01:08:59.828Z,10.43
2023-04-07T01:10:05.580Z,10.43
2023-04-07T01:11:24.902Z,11.30
2023-04-07T01:12:30.733Z,10.77
2023-04-07T01:13:41.921Z,11.77
2023-04-07T01:14:58.220Z,12.47
2023-04-07T01:16:37.627Z,11.50
2023-04-07T01:17:42.501Z,11.87
2023-04-07T01:18:44.863Z,10.70
2023-04-07T01:19:53.530Z,11.57
2023-04-07T01:21:00.559Z,10.07
2023-04-07T01:22:03.592Z,11.63
2023-04-07T01:23:06.944Z,10.93
2023-04-07T01:24:24.326Z,10.40
2023-04-07T01:25:44.330Z,10.80
2023-04-07T01:26:47.123Z,11.50
2023-04-07T01:28:12.778Z,12.20
2023-04-07T01:29:32.513Z,13.07
2023-04-07T01:30:35.724Z,10.10
2023-04-07T01:31:39.435Z,11.10
2023-04-07T01:32:41.535Z,11.20
2023-04-07T01:33:45.266Z,11.13
2023-04-07T01:34:48.672Z,10.83
2023-04-07T01:35:51.064Z,11.77
2023-04-07T01:36:53.100Z,10.93
2023-04-07T01:37:56.125Z,12.73
2023-04-07T01:38:58.609Z,13.07
2023-04-07T01:40:00.001Z,11.83
2023-04-07T01:41:01.777Z,10.83
2023-04-07T01:42:03.909Z,10.50
2023-04-07T01:43:06.263Z,11.73
2023-04-07T01:44:08.635Z,13.03
2023-04-07T01:45:10.472Z,12.63
2023-04-07T01:46:11.824Z,10.23
2023-04-07T01:47:13.571Z,10.97
2023-04-07T01:48:15.835Z,11.67
2023-04-07T01:49:18.036Z,10.63
2023-04-07T01:50:20.253Z,11.20
2023-04-07T01:51:22.446Z,10.87
2023-04-07T01:52:24.489Z,12.30
2023-04-07T01:53:25.924Z,10.90
2023-04-07T01:54:28.179Z,11.00
2023-04-07T01:55:29.858Z,11.30
2023-04-07T01:56:40.830Z,11.17
2023-04-07T01:57:42.176Z,11.70
2023-04-07T01:58:53.330Z,10.97
2023-04-07T01:59:56.592Z,12.37
2023-04-07T02:01:00.294Z,11.17
2023-04-07T02:02:01.769Z,12.10
2023-04-07T02:03:08.699Z,11.50
2023-04-07T02:04:17.242Z,13.10
2023-04-07T02:05:20.397Z,12.03
2023-04-07T02:06:32.211Z,11.37
2023-04-07T02:07:33.634Z,11.17
2023-04-07T02:08:36.649Z,10.67
2023-04-07T02:09:39.439Z,11.23
2023-04-07T02:10:41.622Z,11.67
2023-04-07T02:11:43.999Z,12.33
2023-04-07T02:12:46.303Z,10.73
2023-04-07T02:13:52.599Z,11.90
2023-04-07T02:14:55.102Z,10.70
2023-04-07T02:15:56.998Z,10.90
2023-04-07T02:16:59.156Z,12.13
2023-04-07T02:18:02.055Z,11.00
2023-04-07T02:19:04.526Z,13.00
2023-04-07T02:20:08.113Z,11.30
2023-04-07T02:21:12.753Z,10.70
2023-04-07T02:22:15.746Z,11.90
2023-04-07T02:23:17.371Z,11.13
2023-04-07T02:24:24.616Z,10.73
2023-04-07T02:25:30.915Z,10.87
2023-04-07T02:26:36.061Z,11.87
2023-04-07T02:27:37.385Z,10.40
2023-04-07T02:28:38.727Z,10.67
2023-04-07T02:29:40.719Z,14.30
2023-04-07T02:30:42.033Z,10.83
2023-04-07T02:31:43.467Z,11.30
2023-04-07T02:32:45.045Z,12.00
2023-04-07T02:33:46.436Z,10.33
2023-04-07T02:34:47.730Z,12.47
2023-04-07T02:35:49.116Z,12.13
2023-04-07T02:36:50.443Z,10.80
2023-04-07T02:37:51.923Z,10.73
2023-04-07T02:38:53.349Z,11.77
2023-04-07T02:39:54.661Z,11.70
2023-04-07T02:40:56.302Z,10.87
2023-04-07T02:41:57.618Z,10.03
2023-04-07T02:42:59.034Z,10.27
2023-04-07T02:44:00.508Z,11.30
2023-04-07T02:45:02.246Z,10.00
2023-04-07T02:46:05.461Z,13.07
2023-04-07T02:47:06.866Z,11.33
2023-04-07T02:48:08.222Z,12.70
2023-04-07T02:49:10.937Z,11.03
2023-04-07T02:50:13.033Z,10.77
2023-04-07T02:51:14.419Z,10.37
2023-04-07T02:52:15.749Z,10.93
2023-04-07T02:53:17.139Z,11.67
2023-04-07T02:54:18.600Z,10.73
2023-04-07T02:55:20.271Z,12.37
2023-04-07T02:56:21.682Z,11.23
2023-04-07T02:57:23.056Z,10.43
2023-04-07T02:58:27.559Z,10.93
2023-04-07T02:59:28.973Z,10.57
2023-04-07T03:00:30.482Z,12.83
2023-04-07T03:01:39.106Z,11.57
2023-04-07T03:02:41.349Z,11.47
2023-04-07T03:03:44.842Z,10.57
2023-04-07T03:04:52.540Z,11.33
2023-04-07T03:05:55.456Z,11.30
2023-04-07T03:06:56.836Z,11.37
2023-04-07T03:07:58.164Z,11.40
2023-04-07T03:09:00.418Z,11.13
2023-04-07T03:10:01.860Z,11.73
2023-04-07T03:11:04.835Z,11.93
2023-04-07T03:12:07.340Z,11.07
2023-04-07T03:13:12.661Z,13.13
2023-04-07T03:14:14.409Z,10.97
2023-04-07T03:15:23.459Z,11.03
2023-04-07T03:16:25.804Z,11.73
2023-04-07T03:17:34.958Z,11.83
2023-04-07T03:18:36.352Z,10.77
2023-04-07T03:19:38.274Z,10.80
2023-04-07T03:20:41.898Z,10.93
2023-04-07T03:21:45.612Z,11.43
2023-04-07T03:22:47.378Z,15.03
2023-04-07T03:23:56.061Z,11.63
2023-04-07T03:24:57.460Z,10.77
2023-04-07T03:26:00.283Z,11.30
2023-04-07T03:27:05.754Z,10.70
2023-04-07T03:28:18.076Z,11.27
2023-04-07T03:29:19.532Z,11.53
2023-04-07T03:30:20.889Z,10.60
2023-04-07T03:31:22.863Z,13.73
2023-04-07T03:32:26.528Z,11.13
2023-04-07T03:33:27.976Z,13.90
2023-04-07T03:34:29.818Z,11.23
2023-04-07T03:35:33.155Z,11.53
2023-04-07T03:36:34.527Z,11.23
2023-04-07T03:37:38.973Z,12.60
2023-04-07T03:38:46.913Z,10.70
2023-04-07T03:39:50.317Z,10.97
2023-04-07T03:41:00.267Z,12.23
2023-04-07T03:42:01.663Z,10.53
2023-04-07T03:43:12.314Z,12.70
2023-04-07T03:44:13.675Z,10.87
2023-04-07T03:45:16.452Z,11.63
2023-04-07T03:46:22.273Z,11.53
2023-04-07T03:47:23.886Z,10.90
2023-04-07T03:48:30.818Z,10.03
2023-04-07T03:49:38.431Z,11.83
2023-04-07T03:50:40.912Z,10.73
2023-04-07T03:51:48.015Z,10.93
2023-04-07T03:52:52.092Z,10.93
2023-04-07T03:53:58.813Z,11.73
2023-04-07T03:55:06.199Z,10.60
2023-04-07T03:56:07.691Z,12.23
2023-04-07T03:57:19.117Z,12.70
2023-04-07T03:58:22.455Z,12.37
2023-04-07T03:59:24.270Z,11.67
2023-04-07T04:00:34.601Z,14.10
2023-04-07T04:01:41.736Z,12.47
2023-04-07T04:02:47.663Z,11.93
2023-04-07T04:03:54.044Z,13.00
2023-04-07T04:05:01.124Z,11.77
2023-04-07T04:06:02.483Z,11.07
2023-04-07T04:07:06.402Z,11.67
2023-04-07T04:08:15.647Z,10.47
2023-04-07T04:09:17.462Z,12.23
2023-04-07T04:10:21.684Z,12.17
2023-04-07T04:11:27.269Z,11.53
2023-04-07T04:12:36.550Z,11.40
2023-04-07T04:13:42.611Z,11.80
2023-04-07T04:14:44.060Z,10.97
2023-04-07T04:15:46.833Z,13.20
2023-04-07T04:16:50.712Z,11.00
2023-04-07T04:18:02.896Z,11.07
2023-04-07T04:19:05.792Z,11.43
2023-04-07T04:20:07.869Z,10.77
2023-04-07T04:21:16.839Z,12.60
2023-04-07T04:22:19.976Z,11.00
2023-04-07T04:23:26.296Z,11.17
2023-04-07T04:24:29.410Z,11.47
2023-04-07T04:25:35.215Z,10.87
2023-04-07T04:26:40.916Z,12.33
2023-04-07T04:27:46.491Z,11.07
2023-04-07T04:28:53.090Z,13.73
2023-04-07T04:29:56.506Z,12.00
2023-04-07T04:31:08.327Z,11.83
2023-04-07T04:32:14.663Z,12.20
2023-04-07T04:33:18.286Z,12.30
2023-04-07T04:34:28.372Z,12.07
2023-04-07T04:35:30.998Z,11.27
2023-04-07T04:36:41.616Z,11.63
2023-04-07T04:37:43.337Z,11.77
2023-04-07T04:38:47.091Z,12.83
2023-04-07T04:39:51.720Z,11.93
2023-04-07T04:40:56.314Z,12.57
2023-04-07T04:42:05.211Z,11.53
2023-04-07T04:43:10.361Z,14.13
2023-04-07T04:44:14.402Z,13.27
2023-04-07T04:45:17.176Z,13.77
2023-04-07T04:46:22.017Z,11.67
2023-04-07T04:47:24.906Z,11.87
2023-04-07T04:48:27.420Z,12.03
2023-04-07T04:49:34.705Z,12.77
2023-04-07T04:50:38.432Z,12.23
2023-04-07T04:51:45.220Z,12.40
2023-04-07T04:52:54.181Z,12.27
2023-04-07T04:54:00.189Z,12.00
2023-04-07T04:55:02.754Z,12.30
2023-04-07T04:56:07.953Z,12.00
2023-04-07T04:57:14.177Z,12.23
2023-04-07T04:58:18.475Z,12.40
2023-04-07T04:59:23.645Z,12.90
2023-04-07T05:00:33.295Z,12.43
2023-04-07T05:01:39.638Z,11.70
2023-04-07T05:02:47.213Z,12.73
2023-04-07T05:03:50.593Z,12.20
2023-04-07T05:04:57.656Z,13.40
2023-04-07T05:06:03.045Z,11.83
2023-04-07T05:07:07.754Z,12.43
2023-04-07T05:08:11.183Z,11.07
2023-04-07T05:09:15.852Z,12.27
2023-04-07T05:10:20.127Z,12.23
2023-04-07T05:11:25.094Z,11.93
2023-04-07T05:12:29.843Z,11.80
2023-04-07T05:13:36.946Z,11.50
2023-04-07T05:14:42.670Z,11.37
2023-04-07T05:15:44.578Z,11.53
2023-04-07T05:16:48.350Z,13.10
2023-04-07T05:17:55.139Z,10.97
2023-04-07T05:19:01.012Z,13.20
2023-04-07T05:20:03.532Z,13.23
2023-04-07T05:21:13.589Z,13.17
2023-04-07T05:22:15.761Z,11.37
2023-04-07T05:23:21.003Z,12.03
2023-04-07T05:24:26.592Z,12.83
2023-04-07T05:25:31.348Z,13.00
2023-04-07T05:26:36.152Z,13.20
2023-04-07T05:27:39.597Z,12.50
2023-04-07T05:28:46.309Z,13.73
2023-04-07T05:30:05.141Z,14.87
2023-04-07T05:31:10.780Z,14.80
2023-04-07T05:32:15.776Z,15.17
2023-04-07T05:33:17.567Z,13.30
2023-04-07T05:34:29.402Z,15.27
2023-04-07T05:35:32.459Z,13.87
2023-04-07T05:36:37.046Z,12.00
2023-04-07T05:37:39.301Z,13.37
2023-04-07T05:38:49.729Z,12.33
2023-04-07T05:39:59.977Z,12.53
2023-04-07T05:41:04.801Z,11.87
2023-04-07T05:42:15.190Z,11.90
2023-04-07T05:43:22.303Z,13.97
2023-04-07T05:44:24.609Z,15.07
2023-04-07T05:45:26.303Z,13.40
2023-04-07T05:46:29.108Z,12.97
2023-04-07T05:47:32.473Z,12.63
2023-04-07T05:48:36.160Z,13.30
2023-04-07T05:49:45.983Z,12.63
2023-04-07T05:50:51.300Z,12.87
2023-04-07T05:51:54.748Z,14.03
2023-04-07T05:52:58.059Z,13.50
2023-04-07T05:54:05.629Z,13.70
2023-04-07T05:55:10.754Z,14.80
2023-04-07T05:56:12.776Z,14.13
2023-04-07T05:57:28.170Z,14.03
2023-04-07T05:58:36.110Z,12.43
2023-04-07T05:59:38.209Z,13.50
2023-04-07T06:00:41.693Z,13.90
2023-04-07T06:01:49.073Z,14.97
2023-04-07T06:02:53.640Z,14.47
2023-04-07T06:03:56.066Z,14.30
2023-04-07T06:05:00.000Z,13.80
2023-04-07T06:06:01.873Z,12.57
2023-04-07T06:07:04.456Z,13.40
2023-04-07T06:08:06.483Z,13.17
2023-04-07T06:09:08.331Z,13.93
2023-04-07T06:10:13.135Z,13.17
2023-04-07T06:11:14.796Z,14.40
2023-04-07T06:12:17.044Z,16.73
2023-04-07T06:13:22.268Z,15.33
2023-04-07T06:14:27.707Z,13.83
2023-04-07T06:15:29.396Z,13.43
2023-04-07T06:16:33.770Z,14.07
2023-04-07T06:17:35.415Z,17.37
2023-04-07T06:18:37.402Z,15.93
2023-04-07T06:19:41.764Z,14.30
2023-04-07T06:20:43.521Z,13.63
2023-04-07T06:21:45.679Z,15.23
2023-04-07T06:22:47.542Z,13.90
2023-04-07T06:23:49.464Z,13.70
2023-04-07T06:24:51.475Z,13.37
2023-04-07T06:25:53.390Z,14.30
2023-04-07T06:26:57.016Z,13.67
2023-04-07T06:27:58.879Z,13.03
2023-04-07T06:29:00.858Z,14.33
2023-04-07T06:30:05.923Z,13.43
2023-04-07T06:31:09.049Z,14.03
2023-04-07T06:32:12.781Z,13.43
2023-04-07T06:33:14.462Z,12.50
2023-04-07T06:34:16.652Z,12.33
2023-04-07T06:35:19.897Z,13.60
2023-04-07T06:36:21.861Z,13.63
2023-04-07T06:37:25.384Z,11.97
2023-04-07T06:38:29.704Z,11.47
2023-04-07T06:39:31.356Z,11.77
2023-04-07T06:40:35.853Z,11.10
2023-04-07T06:41:39.024Z,10.63
2023-04-07T06:42:43.858Z,11.30
2023-04-07T06:43:59.116Z,10.77
2023-04-07T06:45:03.605Z,11.87
2023-04-07T06:46:05.739Z,11.57
2023-04-07T06:47:10.407Z,11.13
2023-04-07T06:48:12.500Z,12.60
2023-04-07T06:49:14.202Z,12.63
2023-04-07T06:50:19.973Z,11.77
2023-04-07T06:51:24.490Z,10.57
2023-04-07T06:52:27.030Z,11.23
2023-04-07T06:53:28.771Z,10.23
2023-04-07T06:54:33.319Z,11.17
2023-04-07T06:55:35.597Z,11.50
2023-04-07T06:56:37.537Z,11.00
2023-04-07T06:57:39.519Z,11.60
2023-04-07T06:58:41.332Z,11.83
2023-04-07T06:59:43.475Z,11.37
2023-04-07T07:00:48.181Z,13.23
2023-04-07T07:01:50.604Z,11.07
2023-04-07T07:02:53.563Z,11.27
2023-04-07T07:03:58.353Z,11.13
2023-04-07T07:05:00.888Z,12.03
2023-04-07T07:06:02.965Z,10.87
2023-04-07T07:07:04.980Z,12.10
2023-04-07T07:08:06.441Z,10.83
2023-04-07T07:09:08.020Z,10.60
2023-04-07T07:10:11.359Z,10.53
2023-04-07T07:11:12.911Z,9.97
2023-04-07T07:12:20.602Z,11.17
2023-04-07T07:13:26.436Z,10.17
2023-04-07T07:14:28.316Z,11.03
2023-04-07T07:15:30.339Z,9.53
2023-04-07T07:16:32.106Z,10.07
2023-04-07T07:17:34.971Z,10.23
2023-04-07T07:18:37.396Z,10.80
2023-04-07T07:19:39.041Z,9.83
2023-04-07T07:20:40.923Z,10.27
2023-04-07T07:21:42.627Z,8.87
2023-04-07T07:22:44.359Z,9.43
2023-04-07T07:23:47.008Z,9.27
2023-04-07T07:24:48.995Z,10.37
2023-04-07T07:25:50.505Z,10.37
2023-04-07T07:26:52.161Z,9.80
2023-04-07T07:27:54.224Z,9.57
2023-04-07T07:28:56.128Z,9.03
2023-04-07T07:30:03.621Z,11.40
2023-04-07T07:31:25.474Z,10.40
2023-04-07T07:32:27.112Z,9.03
2023-04-07T07:33:28.812Z,7.93
2023-04-07T07:34:30.614Z,10.23
2023-04-07T07:35:32.764Z,7.53
2023-04-07T07:36:34.456Z,7.93
2023-04-07T07:37:36.136Z,9.00
2023-04-07T07:38:39.121Z,7.43
2023-04-07T07:39:41.371Z,7.83
2023-04-07T07:40:47.644Z,8.17
2023-04-07T07:41:50.754Z,8.87
2023-04-07T07:42:55.146Z,8.40
2023-04-07T07:43:56.849Z,9.07
2023-04-07T07:44:58.616Z,9.93
2023-04-07T07:46:03.335Z,7.17
2023-04-07T07:47:09.894Z,7.57
2023-04-07T07:48:14.921Z,8.53
2023-04-07T07:49:16.780Z,8.40
2023-04-07T07:50:21.438Z,8.73
2023-04-07T07:51:24.341Z,8.27
2023-04-07T07:52:25.938Z,7.60
2023-04-07T07:53:27.559Z,8.50
2023-04-07T07:54:29.121Z,8.27
2023-04-07T07:55:31.330Z,8.60
2023-04-07T07:56:38.664Z,7.27
2023-04-07T07:57:40.713Z,7.00
2023-04-07T07:58:42.236Z,8.87
2023-04-07T07:59:43.767Z,8.13
2023-04-07T08:00:45.507Z,8.93
2023-04-07T08:01:53.039Z,8.47
2023-04-07T08:02:57.802Z,8.07
2023-04-07T08:03:59.577Z,8.70
2023-04-07T08:05:07.477Z,11.13
2023-04-07T08:06:09.603Z,9.67
2023-04-07T08:07:11.939Z,10.17
2023-04-07T08:08:13.703Z,8.80
2023-04-07T08:09:15.758Z,8.13
2023-04-07T08:10:20.300Z,7.23
2023-04-07T08:11:22.297Z,9.43
2023-04-07T08:12:27.024Z,8.03
2023-04-07T08:13:28.689Z,10.57
2023-04-07T08:14:30.233Z,8.53
2023-04-07T08:15:31.936Z,10.50
2023-04-07T08:16:33.594Z,7.80
2023-04-07T08:17:36.260Z,8.53
2023-04-07T08:18:38.406Z,10.43
2023-04-07T08:19:40.288Z,8.33
2023-04-07T08:20:43.028Z,9.07
2023-04-07T08:21:47.568Z,9.30
2023-04-07T08:22:49.513Z,10.40
2023-04-07T08:23:51.862Z,6.70
2023-04-07T08:24:56.398Z,8.27
2023-04-07T08:25:58.271Z,8.13
2023-04-07T08:26:59.995Z,7.27
2023-04-07T08:28:02.053Z,7.53
2023-04-07T08:29:03.681Z,8.30
2023-04-07T08:30:07.188Z,9.73
2023-04-07T08:31:09.039Z,6.63
2023-04-07T08:32:16.228Z,8.00
2023-04-07T08:33:18.244Z,6.07
2023-04-07T08:34:21.134Z,7.77
2023-04-07T08:35:22.867Z,9.17
2023-04-07T08:36:24.604Z,7.20
2023-04-07T08:37:26.032Z,6.97
2023-04-07T08:38:27.983Z,6.80
2023-04-07T08:39:29.313Z,9.23
2023-04-07T08:40:30.812Z,8.50
2023-04-07T08:41:38.707Z,7.50
2023-04-07T08:42:45.662Z,6.40
2023-04-07T08:43:47.421Z,7.37
2023-04-07T08:44:51.115Z,7.03
2023-04-07T08:45:55.363Z,6.70
2023-04-07T08:46:57.490Z,6.37
2023-04-07T08:47:59.337Z,7.83
2023-04-07T08:49:01.308Z,7.80
2023-04-07T08:50:06.675Z,7.47
2023-04-07T08:51:10.069Z,7.37
2023-04-07T08:52:14.893Z,6.70
2023-04-07T08:53:18.489Z,7.43
2023-04-07T08:54:22.112Z,6.67
2023-04-07T08:55:23.837Z,7.37
2023-04-07T08:56:25.871Z,7.80
2023-04-07T08:57:28.814Z,7.97
2023-04-07T08:58:30.230Z,7.03
2023-04-07T08:59:33.676Z,7.67
2023-04-07T09:00:35.026Z,8.03
2023-04-07T09:01:37.026Z,7.37
2023-04-07T09:02:39.664Z,9.37
2023-04-07T09:03:41.147Z,9.33
2023-04-07T09:04:44.064Z,7.00
2023-04-07T09:05:46.253Z,7.17
2023-04-07T09:06:47.602Z,9.27
2023-04-07T09:07:48.924Z,7.47
2023-04-07T09:08:50.370Z,6.17
2023-04-07T09:09:52.420Z,7.57
2023-04-07T09:10:54.025Z,6.90
2023-04-07T09:11:55.503Z,9.27
2023-04-07T09:12:58.223Z,8.20
2023-04-07T09:14:01.633Z,6.83
2023-04-07T09:15:03.444Z,6.27
2023-04-07T09:16:04.928Z,9.63
2023-04-07T09:17:06.249Z,7.63
2023-04-07T09:18:07.576Z,6.90
2023-04-07T09:19:09.029Z,7.77
2023-04-07T09:20:10.621Z,6.80
2023-04-07T09:21:12.648Z,7.33
2023-04-07T09:22:15.380Z,8.17
2023-04-07T09:23:28.388Z,7.07
2023-04-07T09:24:31.892Z,117.77
2023-04-07T09:25:33.968Z,150.00
2023-04-07T09:26:35.351Z,47.10
2023-04-07T09:27:37.214Z,26.33
2023-04-07T09:28:40.654Z,93.13
2023-04-07T09:29:42.999Z,42.80
2023-04-07T09:30:52.459Z,155.23
2023-04-07T09:31:55.279Z,68.10
2023-04-07T09:32:57.100Z,19.67
2023-04-07T09:33:59.734Z,12.00
2023-04-07T09:35:01.276Z,7.43
2023-04-07T09:36:03.493Z,8.53
2023-04-07T09:37:05.754Z,6.80
2023-04-07T09:38:08.095Z,7.93
2023-04-07T09:39:09.731Z,7.73
2023-04-07T09:40:11.538Z,7.73
2023-04-07T09:41:14.192Z,7.87
2023-04-07T09:42:15.551Z,8.53
2023-04-07T09:43:19.301Z,9.20
2023-04-07T09:44:21.549Z,7.83
2023-04-07T09:45:34.013Z,8.20
2023-04-07T09:46:37.594Z,8.50
2023-04-07T09:47:39.312Z,7.13
2023-04-07T09:48:41.545Z,7.57
2023-04-07T09:49:53.622Z,6.57
2023-04-07T09:51:04.759Z,7.80
2023-04-07T09:52:07.540Z,6.07
2023-04-07T09:53:09.310Z,6.47
2023-04-07T09:54:10.994Z,9.57
2023-04-07T09:55:13.112Z,6.37
2023-04-07T09:56:16.318Z,7.00
2023-04-07T09:57:18.569Z,9.30
2023-04-07T09:58:20.396Z,6.50
2023-04-07T09:59:25.050Z,6.00
2023-04-07T10:00:26.543Z,7.97
2023-04-07T10:01:28.131Z,6.40
2023-04-07T10:02:29.707Z,7.33
2023-04-07T10:03:33.910Z,7.53
2023-04-07T10:04:35.655Z,7.57
2023-04-07T10:05:37.092Z,7.47
2023-04-07T10:06:39.295Z,7.33
2023-04-07T10:07:42.577Z,8.80
2023-04-07T10:08:44.381Z,7.17
2023-04-07T10:09:45.941Z,8.40
2023-04-07T10:10:47.973Z,6.27
2023-04-07T10:11:51.090Z,6.87
2023-04-07T10:12:54.021Z,6.03
2023-04-07T10:13:55.807Z,7.47
2023-04-07T10:14:58.046Z,10.37
2023-04-07T10:15:59.914Z,5.77
2023-04-07T10:17:04.254Z,6.57
2023-04-07T10:18:06.482Z,6.23
2023-04-07T10:19:08.240Z,6.60
2023-04-07T10:20:09.949Z,6.10
2023-04-07T10:21:15.168Z,6.53
2023-04-07T10:22:17.645Z,8.10
2023-04-07T10:23:21.092Z,5.63
2023-04-07T10:24:41.520Z,8.27
2023-04-07T10:25:45.787Z,8.43
2023-04-07T10:26:50.540Z,7.53
2023-04-07T10:27:54.820Z,6.90
2023-04-07T10:28:59.975Z,7.73
2023-04-07T10:30:01.901Z,8.23
2023-04-07T10:31:03.695Z,4.90
2023-04-07T10:32:05.211Z,236.90
2023-04-07T10:33:09.375Z,258.67
2023-04-07T10:34:13.595Z,285.07
2023-04-07T10:35:15.140Z,33.80
2023-04-07T10:36:17.736Z,18.73
2023-04-07T10:37:21.281Z,11.00
2023-04-07T10:38:22.843Z,7.23
2023-04-07T10:39:24.915Z,8.27
2023-04-07T10:40:30.019Z,5.53
2023-04-07T10:41:32.674Z,5.73
2023-04-07T10:42:37.065Z,5.67
2023-04-07T10:43:44.466Z,8.97
2023-04-07T10:44:46.736Z,8.03
2023-04-07T10:45:59.734Z,5.67
2023-04-07T10:47:02.621Z,5.93
2023-04-07T10:48:04.077Z,6.50
2023-04-07T10:49:08.556Z,7.43
2023-04-07T10:50:12.703Z,6.03
2023-04-07T10:51:15.390Z,6.13
2023-04-07T10:52:24.115Z,6.93
2023-04-07T10:53:25.578Z,5.77
2023-04-07T10:54:29.051Z,6.63
2023-04-07T10:55:35.643Z,6.07
2023-04-07T10:56:55.682Z,7.10
2023-04-07T10:58:16.203Z,7.53
2023-04-07T10:59:19.439Z,6.10
2023-04-07T11:00:21.034Z,6.93
2023-04-07T11:01:22.768Z,6.63
2023-04-07T11:02:24.432Z,6.03
2023-04-07T11:03:26.578Z,6.63
2023-04-07T11:04:36.446Z,5.43
2023-04-07T11:05:38.919Z,5.43
2023-04-07T11:06:49.389Z,9.47
2023-04-07T11:07:52.224Z,6.70
2023-04-07T11:08:53.767Z,6.80
2023-04-07T11:10:11.615Z,6.00
2023-04-07T11:11:14.940Z,5.90
2023-04-07T11:12:31.441Z,5.63
2023-04-07T11:13:40.199Z,5.80
2023-04-07T11:14:42.089Z,6.67
2023-04-07T11:15:45.660Z,6.87
2023-04-07T11:16:47.152Z,305.23
2023-04-07T11:18:08.044Z,419.13
2023-04-07T11:19:09.903Z,96.33
2023-04-07T11:20:11.783Z,101.60
2023-04-07T11:21:17.657Z,115.07
2023-04-07T11:23:27.518Z,34.73
2023-04-07T11:24:37.742Z,12.83
2023-04-07T11:25:40.483Z,5.37
2023-04-07T11:26:44.172Z,4.20
2023-04-07T11:27:49.223Z,2.70
2023-04-07T11:28:52.842Z,2.20
2023-04-07T11:29:54.467Z,2.07
2023-04-07T11:30:56.576Z,3.70
2023-04-07T11:31:59.038Z,1.90
2023-04-07T11:33:00.711Z,1.67
2023-04-07T11:34:03.060Z,2.43
2023-04-07T11:35:07.738Z,2.30
2023-04-07T11:36:09.166Z,1.70
2023-04-07T11:37:23.675Z,2.13
2023-04-07T11:38:26.194Z,2.40
2023-04-07T11:39:31.077Z,2.23
2023-04-07T11:40:34.493Z,5.60
2023-04-07T11:41:45.690Z,2.90
2023-04-07T11:42:47.420Z,2.67
2023-04-07T11:43:49.115Z,2.27
2023-04-07T11:44:50.735Z,1.87
2023-04-07T11:46:12.365Z,1.83
2023-04-07T11:47:13.760Z,2.43
2023-04-07T11:48:27.756Z,3.37
2023-04-07T11:49:29.361Z,3.93
2023-04-07T11:50:41.088Z,5.03
2023-04-07T11:51:46.125Z,3.87
2023-04-07T11:52:48.570Z,3.90
2023-04-07T11:53:56.882Z,3.83
2023-04-07T11:55:00.354Z,3.90
2023-04-07T11:56:03.350Z,4.13
2023-04-07T11:57:04.641Z,4.10
2023-04-07T11:58:06.703Z,3.60
2023-04-07T11:59:08.131Z,3.30
2023-04-07T12:00:10.902Z,4.10
2023-04-07T12:01:13.856Z,3.23
2023-04-07T12:02:30.975Z,2.47
2023-04-07T12:03:34.155Z,3.10
2023-04-07T12:04:37.772Z,3.90
2023-04-07T12:05:45.362Z,3.00
2023-04-07T12:06:47.784Z,2.60
2023-04-07T12:07:52.950Z,3.20
2023-04-07T12:08:54.477Z,3.77
2023-04-07T12:09:57.353Z,3.30
2023-04-07T12:11:05.328Z,2.57
2023-04-07T12:12:08.178Z,2.50
2023-04-07T12:13:09.762Z,2.93
2023-04-07T12:14:11.293Z,3.30
2023-04-07T12:15:13.551Z,2.50
2023-04-07T12:16:14.909Z,2.37
2023-04-07T12:17:23.033Z,3.00
2023-04-07T12:18:25.184Z,3.13
2023-04-07T12:19:30.366Z,2.30
2023-04-07T12:20:31.883Z,2.37
2023-04-07T12:21:33.267Z,2.40
2023-04-07T12:22:34.584Z,3.17
2023-04-07T12:23:36.145Z,2.60
2023-04-07T12:24:37.474Z,2.37
2023-04-07T12:25:38.787Z,2.47
2023-04-07T12:26:40.167Z,2.90
2023-04-07T12:27:43.629Z,2.23
2023-04-07T12:28:45.365Z,2.50
2023-04-07T12:29:46.686Z,3.40
2023-04-07T12:30:48.989Z,3.47
2023-04-07T12:31:51.308Z,2.40
2023-04-07T12:32:53.384Z,3.20
2023-04-07T12:33:54.786Z,2.77
2023-04-07T12:34:56.082Z,3.23
2023-04-07T12:35:58.242Z,3.27
2023-04-07T12:36:59.617Z,3.13
2023-04-07T12:38:01.099Z,3.97
2023-04-07T12:39:02.520Z,3.23
2023-04-07T12:40:04.092Z,3.17
2023-04-07T12:41:05.527Z,3.03
2023-04-07T12:42:08.343Z,3.20
2023-04-07T12:43:09.678Z,3.67
2023-04-07T12:44:11.754Z,3.13
2023-04-07T12:45:13.045Z,5.43
2023-04-07T12:46:14.488Z,2.53
2023-04-07T12:47:16.012Z,3.13
2023-04-07T12:48:18.576Z,3.47
2023-04-07T12:49:19.891Z,4.47
2023-04-07T12:50:21.228Z,4.10
2023-04-07T12:51:22.707Z,3.17
2023-04-07T12:52:24.072Z,4.10
2023-04-07T12:53:25.580Z,3.17
2023-04-07T12:54:28.605Z,3.60
2023-04-07T12:55:30.747Z,4.10
2023-04-07T12:56:32.466Z,3.07
2023-04-07T12:57:33.805Z,3.20
2023-04-07T12:58:35.245Z,4.07
2023-04-07T12:59:37.446Z,3.33
2023-04-07T13:00:38.834Z,3.33
2023-04-07T13:01:40.489Z,4.53
2023-04-07T13:02:42.590Z,3.17
2023-04-07T13:03:46.712Z,3.27
2023-04-07T13:04:49.502Z,3.83
2023-04-07T13:05:51.601Z,3.97
2023-04-07T13:06:53.247Z,3.87
2023-04-07T13:07:54.569Z,3.33
2023-04-07T13:08:56.529Z,3.03
2023-04-07T13:09:57.983Z,2.97
2023-04-07T13:10:59.426Z,3.83
2023-04-07T13:12:00.866Z,3.03
2023-04-07T13:13:02.314Z,2.90
2023-04-07T13:14:03.823Z,3.40
2023-04-07T13:15:05.655Z,3.27
2023-04-07T13:16:07.181Z,2.97
2023-04-07T13:17:09.055Z,3.13
2023-04-07T13:18:10.502Z,3.10
2023-04-07T13:19:11.983Z,2.93
2023-04-07T13:20:13.540Z,3.40
2023-04-07T13:22:22.152Z,3.07
2023-04-07T13:23:26.357Z,3.30
2023-04-07T13:24:27.814Z,3.30
2023-04-07T13:25:29.120Z,3.50
2023-04-07T13:26:30.441Z,3.50
2023-04-07T13:27:31.793Z,3.83
2023-04-07T13:28:33.757Z,3.80
2023-04-07T13:29:35.102Z,3.47
2023-04-07T13:30:36.649Z,3.77
2023-04-07T13:31:38.067Z,3.77
2023-04-07T13:32:39.453Z,4.77
2023-04-07T13:33:41.170Z,3.27
2023-04-07T13:34:42.559Z,2.90
2023-04-07T13:35:43.998Z,3.43
2023-04-07T13:36:45.464Z,3.10
2023-04-07T13:37:46.810Z,2.97
2023-04-07T13:38:48.126Z,2.93
2023-04-07T13:39:49.498Z,4.63
2023-04-07T13:40:51.007Z,4.00
2023-04-07T13:41:52.302Z,2.60
2023-04-07T13:42:53.603Z,4.03
2023-04-07T13:43:54.968Z,3.50
2023-04-07T13:44:56.308Z,3.23
2023-04-07T13:45:57.644Z,2.53
2023-04-07T13:46:59.049Z,3.30
2023-04-07T13:48:00.593Z,2.77
2023-04-07T13:49:02.192Z,3.70
2023-04-07T13:50:04.003Z,3.93
2023-04-07T13:51:05.494Z,3.53
2023-04-07T13:52:06.820Z,3.73
2023-04-07T13:53:08.136Z,3.00
2023-04-07T13:54:09.418Z,3.27
2023-04-07T13:55:10.885Z,3.47
2023-04-07T13:56:12.303Z,3.30